Hope, ME (04847)

11:15 AM EDT on September 05, 2015 (GMT -0400)
Hope, Maine: Church Street Apple Orchard | | Change Station
CLOSE
Current Station
Personal Weather Station
Location: Hope, ME
Elevation: 420 ft
Nearby Weather Stations

Elev 420 ft 44.27 °N, 69.15 °W | Updated 4 minutes ago

Clear
Clear
72.3 °F
Feels Like 77 °F
N
3.0
Wind Variable Wind from WNW
Gusts 4.0 mph

Today
High -- | Low -- °F
--% Chance of Precip.
Yesterday
High -- | Low -- °F
Precip. -- in
6:03 AM 7:06 PM
Waning Gibbous, 48% visible
Pressure 30.27 in
Visibility 10.0 miles
Clouds Clear
Heat Index 77 °F
Dew Point 55 °F
Humidity 54%
Rainfall 0.00 in
Snow Depth Not available.
UV 7 out of 12
Pollen 6.60 out of 12
Air Quality Not available.
Flu Activity Not available.
METAR KRKD 051455Z AUTO 20004KT 10SM CLR 22/13 A3027 RMK AO1 54000
Pressure 30.27 in
Visibility 10.0 miles
Clouds Clear
Heat Index 77 °F
Dew Point 55 °F
Humidity 54%
Rainfall 0.00 in
Snow Depth Not available.
UV 7 out of 12
Pollen 6.60 out of 12
Air Quality Not available.
Flu Activity Not available.
METAR KRKD 051455Z AUTO 20004KT 10SM CLR 22/13 A3027 RMK AO1 54000

10-Day Weather Forecast

×

Almanac

Astronomy

Sep. 05, 2015 Rise Set
Actual Time
Civil Twilight
Nautical Twilight
Astronomical Twilight
Moon
Length of Visible Light
Length of Day
Tomorrow will be .
, % of the Moon is Illuminated

Today's Extremes

State Highs State Lows

Community

WunderPhotos

Upload Photos

1,852,480 photos uploaded!

WunderBlogs® & News

Nearby

Air Quality

  Air Quality AQ Index Pollutant
Not available.

Snow Depth

Station Depth Elevation

Earthquake Activity

City Distance Mag. Time & Date
Minimum magnitude displayed is 2.5.

Coastal Water Temperatures

Place Temperature

Stations

Nearby Weather Stations

Station Location Temp. Windchill Dew Point Humidity Wind Precip. Elev Updated Type